createdAt,value
2019-01-19T00:00:35.221Z,1.40
2019-01-19T00:03:27.945Z,1.40
2019-01-19T00:06:29.413Z,1.30
2019-01-19T00:09:28.357Z,1.20
2019-01-19T00:12:34.876Z,1.20
2019-01-19T00:15:13.046Z,1.20
2019-01-19T00:18:13.037Z,1.20
2019-01-19T00:20:57.173Z,1.20
2019-01-19T00:23:57.913Z,1.20
2019-01-19T00:26:41.845Z,1.20
2019-01-19T00:29:21.923Z,1.10
2019-01-19T00:32:25.712Z,1.20
2019-01-19T00:35:31.972Z,1.10
2019-01-19T00:38:17.549Z,1.10
2019-01-19T00:41:17.669Z,1.10
2019-01-19T00:44:13.617Z,1.10
2019-01-19T00:47:13.113Z,1.10
2019-01-19T00:49:48.806Z,1.00
2019-01-19T00:52:40.581Z,1.00
2019-01-19T00:55:38.500Z,1.00
2019-01-19T00:58:40.401Z,1.00
2019-01-19T01:01:43.782Z,0.90
2019-01-19T01:04:26.251Z,0.90
2019-01-19T01:07:29.201Z,0.90
2019-01-19T01:10:25.813Z,1.00
2019-01-19T01:13:33.932Z,1.00
2019-01-19T01:16:32.937Z,1.00
2019-01-19T01:19:25.571Z,1.00
2019-01-19T01:22:31.188Z,1.00
2019-01-19T01:25:36.069Z,0.90
2019-01-19T01:28:49.996Z,0.90
2019-01-19T01:31:54.319Z,0.90
2019-01-19T01:34:56.709Z,0.90
2019-01-19T01:37:54.261Z,0.90
2019-01-19T01:40:59.285Z,0.90
2019-01-19T01:43:41.005Z,1.00
2019-01-19T01:47:07.925Z,1.00
2019-01-19T01:49:51.993Z,0.90
2019-01-19T01:53:09.532Z,0.90
2019-01-19T01:55:45.282Z,0.80
2019-01-19T01:58:56.287Z,0.70
2019-01-19T02:01:32.581Z,0.70
2019-01-19T02:04:35.730Z,0.70
2019-01-19T02:07:36.260Z,0.60
2019-01-19T02:10:43.521Z,0.60
2019-01-19T02:13:24.889Z,0.50
2019-01-19T02:16:19.312Z,0.50
2019-01-19T02:19:25.378Z,0.50
2019-01-19T02:22:07.194Z,0.40
2019-01-19T02:25:04.326Z,0.40
2019-01-19T02:28:11.537Z,0.40
2019-01-19T02:31:30.517Z,0.40
2019-01-19T02:34:25.998Z,0.40
2019-01-19T02:37:03.361Z,0.40
2019-01-19T02:40:16.223Z,0.30
2019-01-19T02:43:13.817Z,0.30
2019-01-19T02:46:18.497Z,0.30
2019-01-19T02:49:25.469Z,0.20
2019-01-19T02:52:19.796Z,0.20
2019-01-19T02:55:16.317Z,0.20
2019-01-19T02:58:10.438Z,0.10
2019-01-19T03:01:03.086Z,0.10
2019-01-19T03:04:02.140Z,0.00
2019-01-19T03:07:02.078Z,0.00
2019-01-19T03:09:53.996Z,0.00
2019-01-19T03:13:01.216Z,0.00
2019-01-19T03:15:53.981Z,-0.10
2019-01-19T03:19:21.321Z,0.00
2019-01-19T03:22:01.686Z,0.00
2019-01-19T03:25:09.279Z,0.00
2019-01-19T03:28:29.244Z,0.00
2019-01-19T03:31:28.470Z,0.00
2019-01-19T03:34:15.912Z,-0.10
2019-01-19T03:37:12.615Z,-0.10
2019-01-19T03:40:17.465Z,-0.10
2019-01-19T03:43:13.573Z,-0.10
2019-01-19T03:46:12.172Z,-0.10
2019-01-19T03:49:15.546Z,-0.10
2019-01-19T03:52:14.224Z,-0.20
2019-01-19T03:55:22.821Z,-0.20
2019-01-19T03:58:16.790Z,-0.20
2019-01-19T04:01:01.425Z,-0.20
2019-01-19T04:04:18.169Z,-0.20
2019-01-19T04:07:03.628Z,-0.20
2019-01-19T04:10:02.942Z,-0.20
2019-01-19T04:12:56.725Z,-0.20
2019-01-19T04:16:21.962Z,-0.20
2019-01-19T04:19:17.011Z,-0.20
2019-01-19T04:22:23.834Z,-0.20
2019-01-19T04:25:04.708Z,-0.20
2019-01-19T04:27:34.349Z,-0.20
2019-01-19T04:30:04.518Z,-0.20
2019-01-19T04:32:34.373Z,-0.20
2019-01-19T04:35:04.711Z,-0.20
2019-01-19T04:37:34.338Z,-0.20
2019-01-19T04:40:05.137Z,-0.20
2019-01-19T04:42:35.247Z,-0.20
2019-01-19T04:45:05.282Z,-0.20
2019-01-19T04:47:35.933Z,-0.20
2019-01-19T04:50:06.205Z,-0.20
2019-01-19T04:52:35.841Z,-0.30
2019-01-19T04:55:06.014Z,-0.30
2019-01-19T04:57:35.865Z,-0.40
2019-01-19T05:00:08.629Z,-0.40
2019-01-19T05:02:38.538Z,-0.40
2019-01-19T05:05:08.225Z,-0.30
2019-01-19T05:07:37.854Z,-0.40
2019-01-19T05:10:07.798Z,-0.30
2019-01-19T05:12:37.428Z,-0.40
2019-01-19T05:15:10.481Z,-0.30
2019-01-19T05:17:40.353Z,-0.30
2019-01-19T05:20:10.724Z,-0.40
2019-01-19T05:22:40.558Z,-0.40
2019-01-19T05:25:10.376Z,-0.40
2019-01-19T05:27:40.181Z,-0.50
2019-01-19T05:30:13.177Z,-0.50
2019-01-19T05:32:43.077Z,-0.50
2019-01-19T05:35:13.297Z,-0.50
2019-01-19T05:37:42.994Z,-0.50
2019-01-19T05:40:13.318Z,-0.60
2019-01-19T05:42:43.064Z,-0.60
2019-01-19T05:45:14.434Z,-0.60
2019-01-19T05:47:44.139Z,-0.60
2019-01-19T05:50:23.446Z,-0.60
2019-01-19T05:52:53.108Z,-0.70
2019-01-19T05:55:23.021Z,-0.70
2019-01-19T05:57:52.791Z,-0.70
2019-01-19T06:00:30.033Z,-0.70
2019-01-19T06:02:59.791Z,-0.70
2019-01-19T06:05:29.557Z,-0.70
2019-01-19T06:07:59.224Z,-0.80
2019-01-19T06:10:29.119Z,-0.80
2019-01-19T06:12:58.838Z,-0.80
2019-01-19T06:15:28.462Z,-0.80
2019-01-19T06:17:58.150Z,-0.80
2019-01-19T06:20:28.019Z,-0.80
2019-01-19T06:22:57.786Z,-0.80
2019-01-19T06:25:27.413Z,-0.90
2019-01-19T06:27:57.104Z,-0.90
2019-01-19T06:30:26.818Z,-0.90
2019-01-19T06:32:56.514Z,-0.90
2019-01-19T06:35:26.467Z,-1.00
2019-01-19T06:37:56.300Z,-0.90
2019-01-19T06:40:26.979Z,-1.00
2019-01-19T06:42:56.817Z,-1.00
2019-01-19T06:45:26.714Z,-1.00
2019-01-19T06:47:56.333Z,-1.10
2019-01-19T06:50:25.973Z,-1.10
2019-01-19T06:52:55.656Z,-1.10
2019-01-19T06:55:35.686Z,-1.10
2019-01-19T06:58:05.494Z,-1.10
2019-01-19T07:00:35.224Z,-1.20
2019-01-19T07:03:05.039Z,-1.10
2019-01-19T07:05:34.662Z,-1.10
2019-01-19T07:08:04.385Z,-1.20
2019-01-19T07:10:34.092Z,-1.10
2019-01-19T07:13:04.487Z,-0.70
2019-01-19T07:15:34.740Z,-0.70
2019-01-19T07:18:04.408Z,-0.80
2019-01-19T07:20:34.045Z,-0.80
2019-01-19T07:23:03.802Z,-0.70
2019-01-19T07:25:33.617Z,-0.80
2019-01-19T07:28:03.242Z,-0.80
2019-01-19T07:30:32.876Z,-0.80
2019-01-19T07:33:03.098Z,-0.90
2019-01-19T07:35:32.717Z,-0.90
2019-01-19T07:38:03.300Z,-1.00
2019-01-19T07:40:32.931Z,-1.00
2019-01-19T07:43:11.595Z,-1.00
2019-01-19T07:45:41.517Z,-1.00
2019-01-19T07:48:11.648Z,-1.00
2019-01-19T07:50:42.014Z,-1.00
2019-01-19T07:53:11.769Z,-1.00
2019-01-19T07:55:41.782Z,-1.00
2019-01-19T07:58:11.393Z,-1.00
2019-01-19T08:00:41.021Z,-1.00
2019-01-19T08:03:10.636Z,-1.00
2019-01-19T08:05:40.338Z,-0.90
2019-01-19T08:08:09.956Z,-0.90
2019-01-19T08:10:39.585Z,-1.00
2019-01-19T08:13:09.273Z,-1.00
2019-01-19T08:15:39.214Z,-1.00
2019-01-19T08:18:08.834Z,-0.90
2019-01-19T08:20:39.067Z,-0.90
2019-01-19T08:23:08.897Z,-0.90
2019-01-19T08:25:38.922Z,-0.90
2019-01-19T08:28:09.041Z,-0.90
2019-01-19T08:30:38.721Z,-0.90
2019-01-19T08:33:08.349Z,-0.90
2019-01-19T08:35:38.369Z,-0.90
2019-01-19T08:38:07.993Z,-0.80
2019-01-19T08:40:38.069Z,-0.80
2019-01-19T08:43:29.854Z,-0.80
2019-01-19T08:45:59.653Z,-0.80
2019-01-19T08:48:29.539Z,-0.80
2019-01-19T08:50:59.474Z,-0.70
2019-01-19T08:53:29.170Z,-0.70
2019-01-19T08:55:59.070Z,-0.60
2019-01-19T08:58:30.247Z,-0.50
2019-01-19T09:00:59.894Z,-0.50
2019-01-19T09:03:29.529Z,-0.50
2019-01-19T09:05:59.224Z,-0.40
2019-01-19T09:08:29.864Z,-0.40
2019-01-19T09:10:59.486Z,-0.30
2019-01-19T09:13:29.141Z,-0.20
2019-01-19T09:16:09.922Z,-0.10
2019-01-19T09:18:39.574Z,-0.10
2019-01-19T09:21:09.258Z,0.00
2019-01-19T09:23:52.448Z,0.00
2019-01-19T09:26:22.048Z,0.00
2019-01-19T09:28:52.007Z,0.00
2019-01-19T09:31:21.629Z,0.00
2019-01-19T09:33:51.349Z,-0.10
2019-01-19T09:36:21.310Z,-0.10
2019-01-19T09:38:51.086Z,-0.10
2019-01-19T09:41:20.790Z,-0.10
2019-01-19T09:43:50.433Z,-0.10
2019-01-19T09:46:20.290Z,0.00
2019-01-19T09:48:50.103Z,0.00
2019-01-19T09:51:19.793Z,0.00
2019-01-19T09:53:49.726Z,0.10
2019-01-19T09:56:20.449Z,0.10
2019-01-19T09:58:50.079Z,0.20
2019-01-19T10:01:19.997Z,0.30
2019-01-19T10:03:50.827Z,0.40
2019-01-19T10:06:20.751Z,0.50
2019-01-19T10:08:50.440Z,0.50
2019-01-19T10:11:20.289Z,0.60
2019-01-19T10:13:50.202Z,0.70
2019-01-19T10:16:20.533Z,0.80
2019-01-19T10:18:51.146Z,0.80
2019-01-19T10:21:21.041Z,0.90
2019-01-19T10:23:51.036Z,0.90
2019-01-19T10:26:21.949Z,0.90
2019-01-19T10:28:52.913Z,1.00
2019-01-19T10:31:22.609Z,1.10
2019-01-19T10:33:52.342Z,1.10
2019-01-19T10:36:21.956Z,1.20
2019-01-19T10:38:51.580Z,1.30
2019-01-19T10:41:21.192Z,1.30
2019-01-19T10:43:50.836Z,1.40
2019-01-19T10:46:20.449Z,1.40
2019-01-19T10:48:50.066Z,1.40
2019-01-19T10:51:20.041Z,1.40
2019-01-19T10:53:49.708Z,1.50
2019-01-19T10:56:20.401Z,1.50
2019-01-19T10:58:50.045Z,1.60
2019-01-19T11:01:19.665Z,1.60
2019-01-19T11:03:49.284Z,1.60
2019-01-19T11:06:18.888Z,1.60
2019-01-19T11:08:48.516Z,1.60
2019-01-19T11:11:18.538Z,1.60
2019-01-19T11:13:48.169Z,1.70
2019-01-19T11:16:18.078Z,1.80
2019-01-19T11:18:48.190Z,1.90
2019-01-19T11:21:17.801Z,2.00
2019-01-19T11:23:47.466Z,2.00
2019-01-19T11:26:17.327Z,2.00
2019-01-19T11:28:46.933Z,2.10
2019-01-19T11:31:16.856Z,2.10
2019-01-19T11:33:46.478Z,2.10
2019-01-19T11:36:16.105Z,2.20
2019-01-19T11:38:45.984Z,2.20
2019-01-19T11:41:15.609Z,2.20
2019-01-19T11:43:45.228Z,2.20
2019-01-19T11:46:14.840Z,2.20
2019-01-19T11:48:44.934Z,2.10
2019-01-19T11:51:14.873Z,2.10
2019-01-19T11:53:44.490Z,2.20
2019-01-19T11:56:14.191Z,2.30
2019-01-19T11:58:43.800Z,2.40
2019-01-19T12:01:13.576Z,2.40
2019-01-19T12:03:43.257Z,2.40
2019-01-19T12:06:12.892Z,2.40
2019-01-19T12:08:42.588Z,2.40
2019-01-19T12:11:12.315Z,2.40
2019-01-19T12:13:42.328Z,2.40
2019-01-19T12:16:11.957Z,2.40
2019-01-19T12:18:41.562Z,2.60
2019-01-19T12:21:11.185Z,2.70
2019-01-19T12:23:40.801Z,2.70
2019-01-19T12:26:10.441Z,2.80
2019-01-19T12:28:40.393Z,2.70
2019-01-19T12:31:10.173Z,2.70
2019-01-19T12:33:39.888Z,2.70
2019-01-19T12:36:09.504Z,2.70
2019-01-19T12:38:39.417Z,2.70
2019-01-19T12:41:09.092Z,2.80
2019-01-19T12:43:38.725Z,2.80
2019-01-19T12:46:10.630Z,2.90
2019-01-19T12:48:40.360Z,2.90
2019-01-19T12:51:12.193Z,3.00
2019-01-19T12:53:41.822Z,3.00
2019-01-19T12:56:11.437Z,3.10
2019-01-19T12:58:41.066Z,3.10
2019-01-19T13:01:11.077Z,3.10
2019-01-19T13:03:41.052Z,3.10
2019-01-19T13:06:30.972Z,3.10
2019-01-19T13:09:02.729Z,3.10
2019-01-19T13:11:51.594Z,3.10
2019-01-19T13:14:21.494Z,3.10
2019-01-19T13:17:37.440Z,3.20
2019-01-19T13:20:51.829Z,3.20
2019-01-19T13:23:53.736Z,3.20
2019-01-19T13:26:48.080Z,3.20
2019-01-19T13:30:03.485Z,3.20
2019-01-19T13:33:07.412Z,3.20
2019-01-19T13:36:13.620Z,3.20
2019-01-19T13:39:14.538Z,3.20
2019-01-19T13:42:28.380Z,3.20
2019-01-19T13:45:21.446Z,3.20
2019-01-19T13:48:17.759Z,3.10
2019-01-19T13:51:21.381Z,3.10
2019-01-19T13:54:28.914Z,3.10
2019-01-19T13:57:23.245Z,3.20
2019-01-19T14:00:01.333Z,3.20
2019-01-19T14:03:08.123Z,3.20
2019-01-19T14:06:21.901Z,3.20
2019-01-19T14:09:36.379Z,3.20
2019-01-19T14:12:35.755Z,3.10
2019-01-19T14:15:26.442Z,3.10
2019-01-19T14:18:20.389Z,3.10
2019-01-19T14:21:13.689Z,3.10
2019-01-19T14:23:57.125Z,3.10
2019-01-19T14:26:43.669Z,3.00
2019-01-19T14:30:22.354Z,3.00
2019-01-19T14:33:41.472Z,3.00
2019-01-19T14:37:00.612Z,3.00
2019-01-19T14:39:57.006Z,3.00
2019-01-19T14:43:14.055Z,2.90
2019-01-19T14:46:19.494Z,2.90
2019-01-19T14:49:28.350Z,2.90
2019-01-19T14:52:39.753Z,2.80
2019-01-19T14:55:20.339Z,2.80
2019-01-19T14:58:11.358Z,3.00
2019-01-19T15:01:05.305Z,3.10
2019-01-19T15:03:54.095Z,3.10
2019-01-19T15:06:55.338Z,3.00
2019-01-19T15:09:45.295Z,2.80
2019-01-19T15:12:47.890Z,2.70
2019-01-19T15:15:59.633Z,2.70
2019-01-19T15:19:10.385Z,2.60
2019-01-19T15:22:33.505Z,2.50
2019-01-19T15:25:53.655Z,2.40
2019-01-19T15:28:59.800Z,2.30
2019-01-19T15:32:13.434Z,2.20
2019-01-19T15:35:09.410Z,2.10
2019-01-19T15:37:59.641Z,2.00
2019-01-19T15:40:56.257Z,2.00
2019-01-19T15:44:01.582Z,1.90
2019-01-19T15:47:24.943Z,1.90
2019-01-19T15:50:30.200Z,1.80
2019-01-19T15:53:30.264Z,1.70
2019-01-19T15:56:39.982Z,1.60
2019-01-19T15:59:39.682Z,1.50
2019-01-19T16:02:39.315Z,1.40
2019-01-19T16:05:56.154Z,1.40
2019-01-19T16:09:18.241Z,1.30
2019-01-19T16:12:16.073Z,1.30
2019-01-19T16:15:13.152Z,1.20
2019-01-19T16:18:03.614Z,1.20
2019-01-19T16:20:51.382Z,1.30
2019-01-19T16:23:57.396Z,1.30
2019-01-19T16:27:16.519Z,1.30
2019-01-19T16:30:11.814Z,1.30
2019-01-19T16:33:23.041Z,1.30
2019-01-19T16:36:30.078Z,1.20
2019-01-19T16:39:28.046Z,1.10
2019-01-19T16:42:22.996Z,1.00
2019-01-19T16:45:30.577Z,1.00
2019-01-19T16:48:44.395Z,0.90
2019-01-19T16:52:01.442Z,0.90
2019-01-19T16:55:00.509Z,0.80
2019-01-19T16:57:43.526Z,0.80
2019-01-19T17:00:48.267Z,0.80
2019-01-19T17:03:38.428Z,0.80
2019-01-19T17:06:41.755Z,0.80
2019-01-19T17:09:24.586Z,0.70
2019-01-19T17:12:28.838Z,0.70
2019-01-19T17:15:36.066Z,0.60
2019-01-19T17:18:42.878Z,0.60
2019-01-19T17:21:52.539Z,0.60
2019-01-19T17:24:51.276Z,0.50
2019-01-19T17:28:08.045Z,0.50
2019-01-19T17:31:20.231Z,0.50
2019-01-19T17:34:29.288Z,0.40
2019-01-19T17:37:16.996Z,0.40
2019-01-19T17:40:37.453Z,0.40
2019-01-19T17:43:32.918Z,0.30
2019-01-19T17:46:32.002Z,0.30
2019-01-19T17:49:27.530Z,0.30
2019-01-19T17:52:14.278Z,0.30
2019-01-19T17:55:10.617Z,0.20
2019-01-19T17:58:02.222Z,0.30
2019-01-19T18:01:31.647Z,0.30
2019-01-19T18:04:28.809Z,0.30
2019-01-19T18:07:37.048Z,0.30
2019-01-19T18:10:27.396Z,0.30
2019-01-19T18:13:15.414Z,0.30
2019-01-19T18:16:29.432Z,0.30
2019-01-19T18:19:30.746Z,0.30
2019-01-19T18:22:51.245Z,0.40
2019-01-19T18:26:10.864Z,0.40
2019-01-19T18:29:21.230Z,0.40
2019-01-19T18:32:03.010Z,0.40
2019-01-19T18:34:48.590Z,0.40
2019-01-19T18:37:50.269Z,0.40
2019-01-19T18:40:43.092Z,0.40
2019-01-19T18:43:47.532Z,0.40
2019-01-19T18:46:51.995Z,0.40
2019-01-19T18:49:56.055Z,0.40
2019-01-19T18:52:54.790Z,0.30
2019-01-19T18:56:16.980Z,0.40
2019-01-19T18:59:04.109Z,0.30
2019-01-19T19:02:19.285Z,0.30
2019-01-19T19:05:25.811Z,0.30
2019-01-19T19:08:34.244Z,0.30
2019-01-19T19:11:29.093Z,0.30
2019-01-19T19:14:14.346Z,0.50
2019-01-19T19:17:23.701Z,0.50
2019-01-19T19:20:12.958Z,0.40
2019-01-19T19:23:04.890Z,0.40
2019-01-19T19:26:12.354Z,0.40
2019-01-19T19:29:19.368Z,0.40
2019-01-19T19:32:34.349Z,0.40
2019-01-19T19:35:40.188Z,0.30
2019-01-19T19:38:37.900Z,0.30
2019-01-19T19:41:54.452Z,0.20
2019-01-19T19:44:44.813Z,0.20
2019-01-19T19:47:32.729Z,0.20
2019-01-19T19:50:28.403Z,0.20
2019-01-19T19:52:58.180Z,0.20
2019-01-19T19:55:26.933Z,0.20
2019-01-19T19:57:56.956Z,0.20
2019-01-19T20:00:27.004Z,0.20
2019-01-19T20:02:56.961Z,0.20
2019-01-19T20:05:27.005Z,0.20
2019-01-19T20:07:57.121Z,0.20
2019-01-19T20:10:27.106Z,0.20
2019-01-19T20:12:57.100Z,0.50
2019-01-19T20:15:26.925Z,0.40
2019-01-19T20:17:56.901Z,0.40
2019-01-19T20:20:27.010Z,0.30
2019-01-19T20:22:56.869Z,0.30
2019-01-19T20:25:27.134Z,0.20
2019-01-19T20:27:57.344Z,0.20
2019-01-19T20:30:27.340Z,0.20
2019-01-19T20:32:57.020Z,0.20
2019-01-19T20:35:26.722Z,0.20
2019-01-19T20:37:56.345Z,0.20
2019-01-19T20:40:26.627Z,0.20
2019-01-19T20:42:56.548Z,0.20
2019-01-19T20:45:26.389Z,0.10
2019-01-19T20:47:57.266Z,0.10
2019-01-19T20:50:27.092Z,0.10
2019-01-19T20:52:56.809Z,0.10
2019-01-19T20:55:26.689Z,0.10
2019-01-19T20:57:56.453Z,0.10
2019-01-19T21:00:26.610Z,0.00
2019-01-19T21:02:56.393Z,0.00
2019-01-19T21:05:26.007Z,0.00
2019-01-19T21:07:55.821Z,0.00
2019-01-19T21:10:31.714Z,0.00
2019-01-19T21:12:57.863Z,0.00
2019-01-19T21:15:27.922Z,0.00
2019-01-19T21:17:57.618Z,0.00
2019-01-19T21:20:27.535Z,0.00
2019-01-19T21:22:57.319Z,0.30
2019-01-19T21:25:27.192Z,0.30
2019-01-19T21:27:56.800Z,0.30
2019-01-19T21:30:26.544Z,0.20
2019-01-19T21:32:56.288Z,0.10
2019-01-19T21:35:25.907Z,0.10
2019-01-19T21:37:55.528Z,0.10
2019-01-19T21:40:25.230Z,0.00
2019-01-19T21:42:54.867Z,0.00
2019-01-19T21:45:24.557Z,0.00
2019-01-19T21:47:54.179Z,0.00
2019-01-19T21:50:23.806Z,-0.10
2019-01-19T21:52:53.424Z,0.00
2019-01-19T21:55:23.420Z,-0.10
2019-01-19T21:57:53.110Z,-0.10
2019-01-19T22:00:22.832Z,-0.10
2019-01-19T22:02:52.571Z,-0.10
2019-01-19T22:05:22.473Z,-0.10
2019-01-19T22:07:53.157Z,-0.10
2019-01-19T22:10:23.539Z,-0.10
2019-01-19T22:12:53.445Z,-0.20
2019-01-19T22:15:23.177Z,-0.10
2019-01-19T22:17:53.066Z,-0.20
2019-01-19T22:20:23.164Z,-0.20
2019-01-19T22:22:53.208Z,-0.20
2019-01-19T22:25:22.857Z,-0.30
2019-01-19T22:27:52.904Z,-0.30
2019-01-19T22:30:24.276Z,-0.30
2019-01-19T22:32:55.510Z,-0.30
2019-01-19T22:35:28.735Z,-0.30
2019-01-19T22:37:59.136Z,-0.30
2019-01-19T22:40:28.762Z,-0.30
2019-01-19T22:43:01.038Z,-0.40
2019-01-19T22:45:30.662Z,-0.40
2019-01-19T22:48:00.295Z,-0.40
2019-01-19T22:50:30.264Z,-0.40
2019-01-19T22:52:59.893Z,-0.40
2019-01-19T22:55:29.534Z,-0.40
2019-01-19T22:57:59.164Z,-0.40
2019-01-19T23:00:58.108Z,-0.40
2019-01-19T23:03:30.338Z,-0.40
2019-01-19T23:06:00.021Z,-0.40
2019-01-19T23:08:29.640Z,-0.40
2019-01-19T23:11:01.343Z,-0.40
2019-01-19T23:13:30.662Z,-0.50
2019-01-19T23:16:01.396Z,-0.50
2019-01-19T23:18:31.048Z,-0.50
2019-01-19T23:21:00.820Z,-0.50
2019-01-19T23:23:30.610Z,-0.50
2019-01-19T23:26:01.779Z,-0.60
2019-01-19T23:28:31.726Z,-0.50
2019-01-19T23:31:01.426Z,-0.60
2019-01-19T23:33:31.112Z,-0.60
2019-01-19T23:36:00.744Z,-0.60
2019-01-19T23:38:30.820Z,-0.50
2019-01-19T23:41:00.663Z,-0.60
2019-01-19T23:43:30.292Z,-0.60
2019-01-19T23:45:59.917Z,-0.60
2019-01-19T23:48:29.593Z,-0.60
2019-01-19T23:50:59.196Z,-0.60
2019-01-19T23:53:28.833Z,-0.60
2019-01-19T23:55:58.930Z,-0.60
2019-01-19T23:58:28.560Z,-0.60
